sensor_id;sensor_type;location;lat;lon;timestamp;temperature;humidity
40249;DHT22;25969;49.970;11.062;2023-12-20T05:06:26;3.70;99.90
40249;DHT22;25969;49.970;11.062;2023-12-20T05:16:27;3.90;99.90
40249;DHT22;25969;49.970;11.062;2023-12-20T05:26:27;3.70;99.90
40249;DHT22;25969;49.970;11.062;2023-12-20T05:36:30;3.70;99.90
40249;DHT22;25969;49.970;11.062;2023-12-20T05:46:31;3.70;99.90
40249;DHT22;25969;49.970;11.062;2023-12-20T05:56:31;3.70;99.90
40249;DHT22;25969;49.970;11.062;2023-12-20T06:06:32;3.80;99.90
40249;DHT22;25969;49.970;11.062;2023-12-20T06:16:33;3.80;99.90
40249;DHT22;25969;49.970;11.062;2023-12-20T06:26:33;3.80;99.90
40249;DHT22;25969;49.970;11.062;2023-12-20T06:36:34;3.80;99.90
40249;DHT22;25969;49.970;11.062;2023-12-20T06:46:35;3.90;99.90
40249;DHT22;25969;49.970;11.062;2023-12-20T06:56:36;4.00;99.90
40249;DHT22;25969;49.970;11.062;2023-12-20T07:06:37;3.90;99.90
40249;DHT22;25969;49.970;11.062;2023-12-20T07:16:38;4.00;99.90
40249;DHT22;25969;49.970;11.062;2023-12-20T07:26:38;3.90;99.90
40249;DHT22;25969;49.970;11.062;2023-12-20T07:36:40;3.90;99.90
40249;DHT22;25969;49.970;11.062;2023-12-20T07:46:40;3.90;99.90
40249;DHT22;25969;49.970;11.062;2023-12-20T07:56:41;4.10;99.90
40249;DHT22;25969;49.970;11.062;2023-12-20T08:06:42;4.10;99.90
40249;DHT22;25969;49.970;11.062;2023-12-20T08:16:43;4.10;99.90
40249;DHT22;25969;49.970;11.062;2023-12-20T08:26:43;4.50;99.90
40249;DHT22;25969;49.970;11.062;2023-12-20T08:36:44;4.20;99.90
40249;DHT22;25969;49.970;11.062;2023-12-20T08:46:45;4.70;99.90
40249;DHT22;25969;49.970;11.062;2023-12-20T08:56:45;4.90;99.90
40249;DHT22;25969;49.970;11.062;2023-12-20T09:06:46;5.60;99.90
40249;DHT22;25969;49.970;11.062;2023-12-20T09:16:47;5.30;99.90
40249;DHT22;25969;49.970;11.062;2023-12-20T09:26:48;5.00;99.90
40249;DHT22;25969;49.970;11.062;2023-12-20T09:36:48;4.80;99.90
40249;DHT22;25969;49.970;11.062;2023-12-20T09:46:50;5.00;99.90
40249;DHT22;25969;49.970;11.062;2023-12-20T09:56:51;4.90;99.90
40249;DHT22;25969;49.970;11.062;2023-12-20T10:06:52;5.00;99.90
40249;DHT22;25969;49.970;11.062;2023-12-20T10:16:53;5.20;99.90
40249;DHT22;25969;49.970;11.062;2023-12-20T10:27:08;5.60;99.90
40249;DHT22;25969;49.970;11.062;2023-12-20T10:37:08;7.30;99.90
40249;DHT22;25969;49.970;11.062;2023-12-20T10:47:11;5.70;99.90
40249;DHT22;25969;49.970;11.062;2023-12-20T10:57:13;5.20;99.90
40249;DHT22;25969;49.970;11.062;2023-12-20T11:07:36;5.30;99.90
40249;DHT22;25969;49.970;11.062;2023-12-20T11:17:39;5.00;99.90
40249;DHT22;25969;49.970;11.062;2023-12-20T11:27:42;4.80;99.90
40249;DHT22;25969;49.970;11.062;2023-12-20T11:37:46;4.80;99.90
40249;DHT22;25969;49.970;11.062;2023-12-20T11:47:51;5.00;99.90
40249;DHT22;25969;49.970;11.062;2023-12-20T11:57:52;5.10;99.90
40249;DHT22;25969;49.970;11.062;2023-12-20T12:07:53;5.10;99.90
40249;DHT22;25969;49.970;11.062;2023-12-20T12:17:54;5.20;99.90
40249;DHT22;25969;49.970;11.062;2023-12-20T12:27:57;5.30;99.90
40249;DHT22;25969;49.970;11.062;2023-12-20T12:37:59;5.20;99.90
40249;DHT22;25969;49.970;11.062;2023-12-20T12:48:00;5.10;99.90
40249;DHT22;25969;49.970;11.062;2023-12-20T12:58:01;4.80;99.90
40249;DHT22;25969;49.970;11.062;2023-12-20T13:08:02;4.60;99.90
40249;DHT22;25969;49.970;11.062;2023-12-20T13:18:03;4.50;99.90
40249;DHT22;25969;49.970;11.062;2023-12-20T13:28:06;4.60;99.90
40249;DHT22;25969;49.970;11.062;2023-12-20T13:38:06;4.70;99.90
40249;DHT22;25969;49.970;11.062;2023-12-20T13:48:08;4.70;99.90
40249;DHT22;25969;49.970;11.062;2023-12-20T13:58:09;4.70;99.90
40249;DHT22;25969;49.970;11.062;2023-12-20T14:08:12;4.70;99.90
40249;DHT22;25969;49.970;11.062;2023-12-20T14:18:13;4.70;99.90
40249;DHT22;25969;49.970;11.062;2023-12-20T14:28:15;4.80;99.90
40249;DHT22;25969;49.970;11.062;2023-12-20T14:38:16;4.70;99.90
40249;DHT22;25969;49.970;11.062;2023-12-20T14:48:16;4.70;99.90
40249;DHT22;25969;49.970;11.062;2023-12-20T14:58:18;4.70;99.90
40249;DHT22;25969;49.970;11.062;2023-12-20T15:08:19;4.70;99.90
40249;DHT22;25969;49.970;11.062;2023-12-20T15:18:19;4.70;99.90
40249;DHT22;25969;49.970;11.062;2023-12-20T15:28:20;4.60;99.90
40249;DHT22;25969;49.970;11.062;2023-12-20T15:38:21;4.60;99.90
40249;DHT22;25969;49.970;11.062;2023-12-20T15:48:22;4.60;99.90
40249;DHT22;25969;49.970;11.062;2023-12-20T15:58:29;4.60;99.90
40249;DHT22;25969;49.970;11.062;2023-12-20T16:08:31;4.60;99.90
40249;DHT22;25969;49.970;11.062;2023-12-20T16:18:32;4.60;99.90
40249;DHT22;25969;49.970;11.062;2023-12-20T16:28:33;4.60;99.90
40249;DHT22;25969;49.970;11.062;2023-12-20T16:38:33;4.50;99.90
40249;DHT22;25969;49.970;11.062;2023-12-20T16:48:34;4.70;99.90
40249;DHT22;25969;49.970;11.062;2023-12-20T16:58:35;4.40;99.90
40249;DHT22;25969;49.970;11.062;2023-12-20T17:08:35;4.40;99.90
40249;DHT22;25969;49.970;11.062;2023-12-20T17:18:36;4.30;99.90
40249;DHT22;25969;49.970;11.062;2023-12-20T17:28:39;4.30;99.90
40249;DHT22;25969;49.970;11.062;2023-12-20T17:38:40;4.60;99.90
40249;DHT22;25969;49.970;11.062;2023-12-20T17:48:41;4.30;99.90
40249;DHT22;25969;49.970;11.062;2023-12-20T17:58:42;4.30;99.90
40249;DHT22;25969;49.970;11.062;2023-12-20T18:08:43;4.40;99.90
40249;DHT22;25969;49.970;11.062;2023-12-20T18:18:44;4.40;99.90
40249;DHT22;25969;49.970;11.062;2023-12-20T18:28:45;4.40;99.90
40249;DHT22;25969;49.970;11.062;2023-12-20T18:38:45;4.40;99.90
40249;DHT22;25969;49.970;11.062;2023-12-20T18:48:46;4.40;99.90
40249;DHT22;25969;49.970;11.062;2023-12-20T18:58:47;4.40;99.90
40249;DHT22;25969;49.970;11.062;2023-12-20T19:08:48;4.30;99.90
40249;DHT22;25969;49.970;11.062;2023-12-20T19:18:51;4.30;99.90
40249;DHT22;25969;49.970;11.062;2023-12-20T19:28:52;4.20;99.90
40249;DHT22;25969;49.970;11.062;2023-12-20T19:38:53;4.20;99.90
40249;DHT22;25969;49.970;11.062;2023-12-20T19:48:53;4.20;99.90
40249;DHT22;25969;49.970;11.062;2023-12-20T19:58:54;4.20;99.90
40249;DHT22;25969;49.970;11.062;2023-12-20T20:08:56;4.20;99.90
40249;DHT22;25969;49.970;11.062;2023-12-20T20:18:57;4.30;99.90
40249;DHT22;25969;49.970;11.062;2023-12-20T20:28:57;4.40;99.90
40249;DHT22;25969;49.970;11.062;2023-12-20T20:38:58;4.50;99.90
40249;DHT22;25969;49.970;11.062;2023-12-20T20:49:01;4.40;99.90
40249;DHT22;25969;49.970;11.062;2023-12-20T20:59:02;4.30;99.90
40249;DHT22;25969;49.970;11.062;2023-12-20T21:09:03;4.30;99.90
40249;DHT22;25969;49.970;11.062;2023-12-20T21:19:05;4.30;99.90
40249;DHT22;25969;49.970;11.062;2023-12-20T21:29:06;4.20;99.90
40249;DHT22;25969;49.970;11.062;2023-12-20T21:39:09;4.10;99.90
40249;DHT22;25969;49.970;11.062;2023-12-20T21:49:10;4.10;99.90
40249;DHT22;25969;49.970;11.062;2023-12-20T21:59:10;4.10;99.90
40249;DHT22;25969;49.970;11.062;2023-12-20T22:09:12;4.10;99.90
40249;DHT22;25969;49.970;11.062;2023-12-20T22:19:12;4.20;99.90
40249;DHT22;25969;49.970;11.062;2023-12-20T22:29:13;4.50;99.90
40249;DHT22;25969;49.970;11.062;2023-12-20T22:39:14;4.20;99.90
40249;DHT22;25969;49.970;11.062;2023-12-20T22:49:14;4.20;99.90
